Time;durP1;ratioP1;P1;durP2;ratioP2;P2;SDS_P1;SDS_P2;PMS_P1;PMS_P2;Temp;Humidity;BMP_temperature;BMP_pressure;BME280_temperature;BME280_humidity;BME280_pressure;Samples;Min_cycle;Max_cycle;Signal;HPM_P1;HPM_P2
2022/03/25 00:02:21;;;;;;;27.27;15.18;;;;;;;;;;5051895;28;20063;-65
2022/03/25 00:04:47;;;;;;;27.85;15.55;;;;;;;;;;5051917;28;20049;-65
2022/03/25 00:07:15;;;;;;;28.10;15.13;;;;;;;;;;5051615;28;20053;-65
2022/03/25 00:09:41;;;;;;;21.00;13.15;;;;;;;;;;5051449;28;20412;-65
2022/03/25 00:12:08;;;;;;;23.40;14.35;;;;;;;;;;5051762;28;20059;-65
2022/03/25 00:14:35;;;;;;;23.38;13.35;;;;;;;;;;5051673;28;20049;-65
2022/03/25 00:17:02;;;;;;;22.38;12.95;;;;;;;;;;5051740;28;20056;-65
2022/03/25 00:19:29;;;;;;;18.25;13.07;;;;;;;;;;5051333;28;20053;-65
2022/03/25 00:21:55;;;;;;;23.08;13.35;;;;;;;;;;5051398;28;20053;-65
2022/03/25 00:24:24;;;;;;;22.38;12.68;;;;;;;;;;5051746;28;20049;-65
2022/03/25 00:26:51;;;;;;;23.23;14.48;;;;;;;;;;5055711;28;20496;-65
2022/03/25 00:29:17;;;;;;;25.17;14.65;;;;;;;;;;5055556;28;20404;-65
2022/03/25 00:31:44;;;;;;;28.80;15.85;;;;;;;;;;5055360;28;20056;-65
2022/03/25 00:34:10;;;;;;;28.40;16.63;;;;;;;;;;5054971;28;20119;-65
2022/03/25 00:36:37;;;;;;;26.30;14.90;;;;;;;;;;5055438;28;20048;-65
2022/03/25 00:39:04;;;;;;;27.92;15.65;;;;;;;;;;5055670;28;20049;-65
2022/03/25 00:41:36;;;;;;;26.13;14.52;;;;;;;;;;5055333;28;20056;-65
2022/03/25 00:44:06;;;;;;;24.38;15.13;;;;;;;;;;5055196;28;20052;-65
2022/03/25 00:46:34;;;;;;;24.75;14.95;;;;;;;;;;5055666;28;20139;-65
2022/03/25 00:49:00;;;;;;;23.63;14.65;;;;;;;;;;5055135;28;20044;-65
2022/03/25 00:51:28;;;;;;;25.80;15.15;;;;;;;;;;5055119;28;20052;-65
2022/03/25 00:53:55;;;;;;;22.33;14.63;;;;;;;;;;5055518;28;20060;-65
2022/03/25 00:56:22;;;;;;;24.98;15.18;;;;;;;;;;5055340;28;20045;-65
2022/03/25 00:58:49;;;;;;;25.63;15.73;;;;;;;;;;5055090;28;20496;-65
2022/03/25 01:01:16;;;;;;;22.63;14.68;;;;;;;;;;5054589;28;20056;-65
2022/03/25 01:03:43;;;;;;;20.55;13.85;;;;;;;;;;5054698;28;20049;-65
2022/03/25 01:06:10;;;;;;;20.40;13.95;;;;;;;;;;5055096;28;20052;-65
2022/03/25 01:08:36;;;;;;;20.23;13.07;;;;;;;;;;5054961;28;20103;-65
2022/03/25 01:11:04;;;;;;;22.58;13.18;;;;;;;;;;5054558;28;20064;-64
2022/03/25 01:13:33;;;;;;;19.70;13.05;;;;;;;;;;5054690;28;20041;-64
2022/03/25 01:16:01;;;;;;;17.02;12.50;;;;;;;;;;5054506;28;20079;-64
2022/03/25 01:18:28;;;;;;;21.60;13.30;;;;;;;;;;5054679;28;20119;-65
2022/03/25 01:20:55;;;;;;;23.92;13.85;;;;;;;;;;5054431;28;20079;-65
2022/03/25 01:23:22;;;;;;;21.27;13.27;;;;;;;;;;5054580;28;20052;-65
2022/03/25 01:25:48;;;;;;;19.77;13.75;;;;;;;;;;5054401;28;20520;-65
2022/03/25 01:28:15;;;;;;;23.30;13.60;;;;;;;;;;5054460;28;20056;-65
2022/03/25 01:30:42;;;;;;;22.92;13.88;;;;;;;;;;5054136;28;20053;-65
2022/03/25 01:33:10;;;;;;;24.55;14.50;;;;;;;;;;5054043;28;20463;-66
2022/03/25 01:35:37;;;;;;;24.40;14.20;;;;;;;;;;5054335;28;20056;-65
2022/03/25 01:38:04;;;;;;;24.42;14.20;;;;;;;;;;5054676;28;20048;-65
2022/03/25 01:40:31;;;;;;;21.13;13.55;;;;;;;;;;5054149;28;20071;-65
2022/03/25 01:42:58;;;;;;;20.80;14.18;;;;;;;;;;5054041;28;20049;-65
2022/03/25 01:45:35;;;;;;;19.23;13.30;;;;;;;;;;5054356;28;20297;-65
2022/03/25 01:48:08;;;;;;;21.98;13.55;;;;;;;;;;5054470;28;20064;-65
2022/03/25 01:50:34;;;;;;;21.58;12.88;;;;;;;;;;5054050;28;20435;-65
2022/03/25 01:53:01;;;;;;;22.38;13.82;;;;;;;;;;5053986;28;20045;-65
2022/03/25 01:55:28;;;;;;;21.13;13.25;;;;;;;;;;5053837;28;20053;-65
2022/03/25 01:57:58;;;;;;;24.15;13.23;;;;;;;;;;5036176;28;20053;-64
2022/03/25 02:00:28;;;;;;;23.85;13.23;;;;;;;;;;5053819;28;20052;-64
2022/03/25 02:02:55;;;;;;;25.80;14.15;;;;;;;;;;5053449;28;20049;-65
2022/03/25 02:05:22;;;;;;;20.65;13.23;;;;;;;;;;5053648;28;20515;-64
2022/03/25 02:07:48;;;;;;;19.58;13.23;;;;;;;;;;5054144;28;20499;-64
2022/03/25 02:10:16;;;;;;;24.48;13.93;;;;;;;;;;5053404;28;20393;-64
2022/03/25 02:12:43;;;;;;;22.20;13.63;;;;;;;;;;5052156;28;20091;-65
2022/03/25 02:15:09;;;;;;;21.80;13.88;;;;;;;;;;5053809;28;20393;-65
2022/03/25 02:17:37;;;;;;;22.02;14.70;;;;;;;;;;5053399;28;20500;-65
2022/03/25 02:20:08;;;;;;;20.90;13.48;;;;;;;;;;5053416;28;20482;-65
2022/03/25 02:22:36;;;;;;;22.38;13.93;;;;;;;;;;5053259;28;20427;-65
2022/03/25 02:25:06;;;;;;;21.00;13.23;;;;;;;;;;5053201;28;20099;-65
2022/03/25 02:27:33;;;;;;;21.48;13.15;;;;;;;;;;5052437;28;20075;-65
2022/03/25 02:29:59;;;;;;;20.75;13.73;;;;;;;;;;5053119;28;20496;-65
2022/03/25 02:32:26;;;;;;;21.00;13.15;;;;;;;;;;5053150;28;20099;-65
2022/03/25 02:34:52;;;;;;;21.08;13.88;;;;;;;;;;5052586;28;20107;-65
2022/03/25 02:37:19;;;;;;;19.10;13.05;;;;;;;;;;5053256;28;20053;-65
2022/03/25 02:39:46;;;;;;;22.35;13.43;;;;;;;;;;5052953;28;20495;-65
2022/03/25 02:42:12;;;;;;;19.67;13.45;;;;;;;;;;5053026;28;20049;-65
2022/03/25 02:48:08;;;;;;;22.52;12.93;;;;;;;;;;5052489;28;20097;-65
2022/03/25 02:50:35;;;;;;;20.42;12.70;;;;;;;;;;5052929;28;20049;-65
2022/03/25 02:53:02;;;;;;;21.85;13.73;;;;;;;;;;5052844;28;20049;-65
2022/03/25 02:55:29;;;;;;;19.88;12.80;;;;;;;;;;5052769;28;20049;-65
2022/03/25 02:57:56;;;;;;;20.15;14.70;;;;;;;;;;5052688;28;20087;-65
2022/03/25 03:00:25;;;;;;;24.00;13.85;;;;;;;;;;5052362;28;20048;-65
2022/03/25 03:02:53;;;;;;;21.25;14.27;;;;;;;;;;5052687;28;20424;-65
2022/03/25 03:05:21;;;;;;;22.48;13.82;;;;;;;;;;5052583;28;20458;-65
2022/03/25 03:07:48;;;;;;;20.23;13.27;;;;;;;;;;5052875;28;20462;-65
2022/03/25 03:10:15;;;;;;;23.15;14.57;;;;;;;;;;5052393;28;20562;-65
2022/03/25 03:12:41;;;;;;;20.15;13.30;;;;;;;;;;5052113;28;20057;-65
2022/03/25 03:15:09;;;;;;;21.55;14.35;;;;;;;;;;5052468;28;20106;-65
2022/03/25 03:17:36;;;;;;;18.92;13.63;;;;;;;;;;5052512;28;20412;-65
2022/03/25 03:20:03;;;;;;;19.65;13.02;;;;;;;;;;5052394;28;20459;-65
2022/03/25 03:22:30;;;;;;;19.08;13.05;;;;;;;;;;5052051;28;20053;-65
2022/03/25 03:24:56;;;;;;;19.30;13.38;;;;;;;;;;5052382;28;20045;-65
2022/03/25 03:27:24;;;;;;;21.52;13.57;;;;;;;;;;5051116;28;20129;-65
2022/03/25 03:29:51;;;;;;;20.85;13.73;;;;;;;;;;5052160;28;20052;-65
2022/03/25 03:32:18;;;;;;;19.85;13.88;;;;;;;;;;5052016;28;20463;-65
2022/03/25 03:34:46;;;;;;;21.40;15.35;;;;;;;;;;5052052;28;20416;-65
2022/03/25 03:37:12;;;;;;;22.92;13.70;;;;;;;;;;5052078;28;20045;-65
2022/03/25 03:39:39;;;;;;;24.20;14.20;;;;;;;;;;5051984;28;20049;-65
2022/03/25 03:42:05;;;;;;;21.63;14.52;;;;;;;;;;5051944;28;20045;-65
2022/03/25 03:44:32;;;;;;;26.35;13.93;;;;;;;;;;5051993;28;20462;-65
2022/03/25 03:46:59;;;;;;;19.73;13.43;;;;;;;;;;5051942;28;20451;-65
2022/03/25 03:49:26;;;;;;;21.42;14.68;;;;;;;;;;5051764;28;20082;-65
2022/03/25 03:51:52;;;;;;;24.80;13.80;;;;;;;;;;5051576;28;20049;-66
2022/03/25 03:54:19;;;;;;;24.90;14.20;;;;;;;;;;5051683;28;20041;-66
2022/03/25 03:56:45;;;;;;;23.20;13.32;;;;;;;;;;5051972;28;20049;-65
2022/03/25 03:59:12;;;;;;;23.10;14.80;;;;;;;;;;5049768;28;20457;-65
2022/03/25 04:01:39;;;;;;;20.75;14.27;;;;;;;;;;5074667;22;20483;-66
2022/03/25 04:04:06;;;;;;;24.80;14.43;;;;;;;;;;5051633;28;20045;-66
2022/03/25 04:06:33;;;;;;;22.38;14.25;;;;;;;;;;5051650;28;20115;-66
2022/03/25 04:08:59;;;;;;;23.75;14.65;;;;;;;;;;5051682;28;20053;-67
2022/03/25 04:11:26;;;;;;;21.15;14.55;;;;;;;;;;5051518;28;20412;-66
2022/03/25 04:13:53;;;;;;;24.23;14.93;;;;;;;;;;5051681;28;20049;-66
2022/03/25 04:16:21;;;;;;;22.80;14.70;;;;;;;;;;5051591;28;20052;-66
2022/03/25 04:18:48;;;;;;;23.83;14.93;;;;;;;;;;5051606;28;20415;-66
2022/03/25 04:21:15;;;;;;;25.63;15.63;;;;;;;;;;5049935;28;20079;-66
2022/03/25 04:23:42;;;;;;;23.38;14.52;;;;;;;;;;5051323;28;20079;-66
2022/03/25 04:26:08;;;;;;;25.08;15.20;;;;;;;;;;5051550;28;20089;-66
2022/03/25 04:28:35;;;;;;;25.73;15.07;;;;;;;;;;5051657;28;20126;-66
2022/03/25 04:31:02;;;;;;;28.48;14.32;;;;;;;;;;5051045;28;20113;-66
2022/03/25 04:33:31;;;;;;;23.38;14.23;;;;;;;;;;5051331;28;20049;-66
2022/03/25 04:35:58;;;;;;;22.48;13.75;;;;;;;;;;5051279;28;20522;-66
2022/03/25 04:38:24;;;;;;;23.27;14.75;;;;;;;;;;5051589;28;20106;-66
2022/03/25 04:40:51;;;;;;;21.30;13.30;;;;;;;;;;5051156;28;20057;-66
2022/03/25 04:43:17;;;;;;;23.05;14.27;;;;;;;;;;5051118;28;20103;-66
2022/03/25 04:45:44;;;;;;;23.35;14.18;;;;;;;;;;5051202;28;20045;-66
2022/03/25 04:48:11;;;;;;;26.48;15.13;;;;;;;;;;5051198;28;20087;-67
2022/03/25 04:50:38;;;;;;;20.73;14.05;;;;;;;;;;5051084;28;20052;-66
2022/03/25 04:53:05;;;;;;;23.92;14.85;;;;;;;;;;5051183;28;20404;-66
2022/03/25 04:55:32;;;;;;;21.75;14.38;;;;;;;;;;5051352;28;20415;-67
2022/03/25 04:57:59;;;;;;;21.08;13.30;;;;;;;;;;5051359;28;20049;-66
2022/03/25 05:00:29;;;;;;;25.13;15.50;;;;;;;;;;5051113;28;20052;-67
2022/03/25 05:02:56;;;;;;;23.92;14.27;;;;;;;;;;5050814;28;20100;-67
2022/03/25 05:05:22;;;;;;;22.52;15.65;;;;;;;;;;5050976;28;20114;-66
2022/03/25 05:07:50;;;;;;;25.67;15.57;;;;;;;;;;5051248;28;20053;-66
2022/03/25 05:10:17;;;;;;;27.95;14.57;;;;;;;;;;5051220;28;20099;-66
2022/03/25 05:12:44;;;;;;;25.48;14.82;;;;;;;;;;5057071;28;20049;-66
2022/03/25 05:15:11;;;;;;;22.25;14.30;;;;;;;;;;5055399;28;20045;-66
2022/03/25 05:17:51;;;;;;;22.23;14.93;;;;;;;;;;5054491;28;20053;-66
2022/03/25 05:20:19;;;;;;;25.50;14.98;;;;;;;;;;5054690;28;20053;-66
2022/03/25 05:22:46;;;;;;;27.45;15.68;;;;;;;;;;5054427;28;20110;-66
2022/03/25 05:25:13;;;;;;;23.13;15.60;;;;;;;;;;5054333;28;20045;-66
2022/03/25 05:27:51;;;;;;;25.92;15.50;;;;;;;;;;5054412;28;20049;-66
2022/03/25 05:30:24;;;;;;;26.33;15.73;;;;;;;;;;5054482;28;20077;-66
2022/03/25 05:32:51;;;;;;;28.08;15.18;;;;;;;;;;5054329;28;20053;-66
2022/03/25 05:35:22;;;;;;;25.40;15.50;;;;;;;;;;5054469;28;20045;-66
2022/03/25 05:37:49;;;;;;;26.13;13.80;;;;;;;;;;5054292;28;20084;-66
2022/03/25 05:40:16;;;;;;;25.27;15.13;;;;;;;;;;5053190;28;20048;-67
2022/03/25 05:42:43;;;;;;;24.48;15.35;;;;;;;;;;5053838;28;20098;-66
2022/03/25 05:45:10;;;;;;;28.13;15.68;;;;;;;;;;5054074;28;20550;-66
2022/03/25 05:47:37;;;;;;;25.05;15.25;;;;;;;;;;5052632;28;20102;-67
2022/03/25 05:50:05;;;;;;;23.70;15.02;;;;;;;;;;5052973;28;20053;-67
2022/03/25 05:52:31;;;;;;;23.15;14.20;;;;;;;;;;5053930;28;20048;-67
2022/03/25 05:54:58;;;;;;;25.05;14.75;;;;;;;;;;5054094;28;20533;-67
2022/03/25 05:57:24;;;;;;;26.58;15.18;;;;;;;;;;5054595;28;20193;-67
2022/03/25 05:59:51;;;;;;;23.02;15.45;;;;;;;;;;5054801;28;20049;-68
2022/03/25 06:02:17;;;;;;;24.95;14.30;;;;;;;;;;5054102;28;20095;-67
2022/03/25 06:04:45;;;;;;;22.70;14.57;;;;;;;;;;5053956;28;20095;-67
2022/03/25 06:07:12;;;;;;;24.23;14.65;;;;;;;;;;5054115;28;20072;-67
2022/03/25 06:09:39;;;;;;;23.33;14.90;;;;;;;;;;5053985;28;20504;-68
2022/03/25 06:12:06;;;;;;;31.85;15.43;;;;;;;;;;5053545;28;20549;-67
2022/03/25 06:14:33;;;;;;;26.42;15.35;;;;;;;;;;5053895;28;20099;-67
2022/03/25 06:16:59;;;;;;;29.42;15.30;;;;;;;;;;5053740;28;20488;-67
2022/03/25 06:19:26;;;;;;;27.17;15.88;;;;;;;;;;5054112;28;20055;-67
2022/03/25 06:21:53;;;;;;;25.20;15.38;;;;;;;;;;5053301;28;20045;-67
2022/03/25 06:24:19;;;;;;;26.35;14.02;;;;;;;;;;5053164;28;20045;-67
2022/03/25 06:26:46;;;;;;;28.52;13.90;;;;;;;;;;5053800;28;20045;-67
2022/03/25 06:29:12;;;;;;;23.25;14.50;;;;;;;;;;5053347;28;20053;-67
2022/03/25 06:31:39;;;;;;;25.08;15.75;;;;;;;;;;5053489;28;20053;-67
2022/03/25 06:34:06;;;;;;;25.90;15.65;;;;;;;;;;5053347;28;20516;-67
2022/03/25 06:36:32;;;;;;;27.00;16.58;;;;;;;;;;5053544;28;20415;-68
2022/03/25 06:38:59;;;;;;;25.33;15.93;;;;;;;;;;5053409;28;20099;-67
2022/03/25 06:41:25;;;;;;;25.40;15.48;;;;;;;;;;5053223;28;20044;-67
2022/03/25 06:43:52;;;;;;;25.95;15.60;;;;;;;;;;5053212;28;20052;-67
2022/03/25 06:46:19;;;;;;;27.40;16.63;;;;;;;;;;5053106;28;20052;-67
2022/03/25 06:48:45;;;;;;;30.73;14.13;;;;;;;;;;5052986;28;20049;-67
2022/03/25 06:51:12;;;;;;;24.02;15.07;;;;;;;;;;5052663;28;20107;-67
2022/03/25 06:53:39;;;;;;;27.25;15.65;;;;;;;;;;5051752;28;20110;-67
2022/03/25 06:56:06;;;;;;;27.67;16.40;;;;;;;;;;5052961;28;20049;-67
2022/03/25 06:58:36;;;;;;;21.20;14.65;;;;;;;;;;5052674;28;20053;-67
2022/03/25 07:01:03;;;;;;;24.67;16.33;;;;;;;;;;5052492;28;20103;-67
2022/03/25 07:03:30;;;;;;;23.90;15.85;;;;;;;;;;5052712;28;20053;-67
2022/03/25 07:05:59;;;;;;;28.83;17.00;;;;;;;;;;5053060;28;20052;-67
2022/03/25 07:08:29;;;;;;;23.10;15.52;;;;;;;;;;5051598;28;20053;-67
2022/03/25 07:10:59;;;;;;;25.42;16.75;;;;;;;;;;5052650;28;20048;-67
2022/03/25 07:13:26;;;;;;;30.65;16.27;;;;;;;;;;5052473;28;20049;-67
2022/03/25 07:15:54;;;;;;;27.10;16.20;;;;;;;;;;5052399;28;20102;-67
2022/03/25 07:18:21;;;;;;;27.20;16.75;;;;;;;;;;5052321;28;20512;-67
2022/03/25 07:20:47;;;;;;;28.65;16.95;;;;;;;;;;5052059;28;20052;-67
2022/03/25 07:23:14;;;;;;;28.13;16.98;;;;;;;;;;5052405;28;20060;-67
2022/03/25 07:25:41;;;;;;;28.63;16.42;;;;;;;;;;5052120;28;20102;-67
2022/03/25 07:28:08;;;;;;;28.13;17.25;;;;;;;;;;5052275;28;20103;-67
2022/03/25 07:30:34;;;;;;;22.65;15.23;;;;;;;;;;5052146;28;20053;-67
2022/03/25 07:33:01;;;;;;;25.45;15.32;;;;;;;;;;5051859;28;20106;-67
2022/03/25 07:35:28;;;;;;;24.70;15.82;;;;;;;;;;5052207;28;20056;-67
2022/03/25 07:37:55;;;;;;;25.60;15.02;;;;;;;;;;5052239;28;20049;-67
2022/03/25 07:40:22;;;;;;;23.48;15.38;;;;;;;;;;5052259;28;20057;-67
2022/03/25 07:42:48;;;;;;;23.35;15.48;;;;;;;;;;5051856;28;20495;-67
2022/03/25 07:45:15;;;;;;;25.58;15.95;;;;;;;;;;5051819;28;20102;-67
2022/03/25 07:47:43;;;;;;;25.80;15.48;;;;;;;;;;5051862;28;20049;-67
2022/03/25 07:50:11;;;;;;;25.17;15.90;;;;;;;;;;5052933;28;20461;-67
2022/03/25 07:52:38;;;;;;;26.83;16.80;;;;;;;;;;5053092;28;20503;-67
2022/03/25 07:55:05;;;;;;;27.00;17.15;;;;;;;;;;5051115;28;20094;-67
2022/03/25 07:57:34;;;;;;;25.00;15.20;;;;;;;;;;5051915;28;20107;-67
2022/03/25 08:00:03;;;;;;;26.02;16.13;;;;;;;;;;5051536;28;20507;-67
2022/03/25 08:02:30;;;;;;;24.80;15.98;;;;;;;;;;5051846;28;20463;-67
2022/03/25 08:04:57;;;;;;;23.50;15.50;;;;;;;;;;5051552;28;20509;-67
2022/03/25 08:07:24;;;;;;;29.85;17.95;;;;;;;;;;5051648;28;20056;-67
2022/03/25 08:09:51;;;;;;;30.95;16.45;;;;;;;;;;5051527;28;20053;-67
2022/03/25 08:12:17;;;;;;;24.27;16.00;;;;;;;;;;5051614;28;20075;-67
2022/03/25 08:14:44;;;;;;;25.15;15.75;;;;;;;;;;5051365;28;20053;-67
2022/03/25 08:17:11;;;;;;;29.00;17.27;;;;;;;;;;5051885;28;20128;-67
2022/03/25 08:19:38;;;;;;;31.80;17.65;;;;;;;;;;5051690;28;20107;-67
2022/03/25 08:22:04;;;;;;;28.52;17.70;;;;;;;;;;5051432;28;20049;-67
2022/03/25 08:30:01;;;;;;;31.48;18.35;;;;;;;;;;5051301;28;20045;-67
2022/03/25 08:32:28;;;;;;;26.38;16.88;;;;;;;;;;5051420;28;20111;-67
2022/03/25 08:34:54;;;;;;;29.48;17.80;;;;;;;;;;5050825;28;20049;-67
2022/03/25 08:37:28;;;;;;;28.80;17.80;;;;;;;;;;5051982;28;20056;-67
2022/03/25 08:39:54;;;;;;;30.55;18.63;;;;;;;;;;5051035;28;20053;-67
2022/03/25 08:42:21;;;;;;;36.17;19.08;;;;;;;;;;5051212;28;20053;-67
2022/03/25 08:44:47;;;;;;;30.38;19.13;;;;;;;;;;5051414;28;20096;-67
2022/03/25 08:47:14;;;;;;;29.35;18.42;;;;;;;;;;5054832;28;20048;-67
2022/03/25 08:49:41;;;;;;;29.08;18.25;;;;;;;;;;5055106;28;20103;-67
2022/03/25 08:52:07;;;;;;;33.20;19.15;;;;;;;;;;5054836;28;20104;-65
2022/03/25 08:54:34;;;;;;;32.85;18.95;;;;;;;;;;5054949;28;20057;-64
2022/03/25 08:57:02;;;;;;;32.65;20.10;;;;;;;;;;5054947;28;20048;-65
2022/03/25 08:59:30;;;;;;;32.05;19.52;;;;;;;;;;5054738;28;20059;-66
2022/03/25 09:01:56;;;;;;;34.78;19.95;;;;;;;;;;5053542;28;20427;-66
2022/03/25 09:04:23;;;;;;;38.88;20.00;;;;;;;;;;5054658;28;20053;-66
2022/03/25 09:06:50;;;;;;;32.20;19.70;;;;;;;;;;5054586;28;20613;-66
2022/03/25 09:09:16;;;;;;;35.17;20.73;;;;;;;;;;5054717;28;20045;-66
2022/03/25 09:11:43;;;;;;;35.58;19.20;;;;;;;;;;5054535;28;20110;-66
2022/03/25 09:14:09;;;;;;;31.00;20.27;;;;;;;;;;5054344;28;20488;-66
2022/03/25 09:16:36;;;;;;;33.25;20.27;;;;;;;;;;5055076;28;20102;-66
2022/03/25 09:19:03;;;;;;;34.65;19.95;;;;;;;;;;5054533;28;20049;-66
2022/03/25 09:21:29;;;;;;;32.95;19.52;;;;;;;;;;5053961;28;20049;-66
2022/03/25 09:23:56;;;;;;;37.28;21.25;;;;;;;;;;5054696;28;20052;-66
2022/03/25 09:26:24;;;;;;;34.00;20.55;;;;;;;;;;5054253;28;20091;-66
2022/03/25 09:28:51;;;;;;;36.38;20.48;;;;;;;;;;5054673;28;20103;-66
2022/03/25 09:31:18;;;;;;;33.42;20.90;;;;;;;;;;5053973;28;20581;-66
2022/03/25 09:36:50;;;;;;;36.10;20.77;;;;;;;;;;5054664;28;20045;-66
2022/03/25 09:39:16;;;;;;;35.70;21.23;;;;;;;;;;5054230;28;20106;-66
2022/03/25 09:41:43;;;;;;;35.78;22.08;;;;;;;;;;5054104;28;20568;-66
2022/03/25 09:44:09;;;;;;;35.35;21.73;;;;;;;;;;5054032;28;20110;-66
2022/03/25 09:46:41;;;;;;;35.97;22.90;;;;;;;;;;5036345;28;20049;-66
2022/03/25 09:49:09;;;;;;;33.75;22.30;;;;;;;;;;5054418;28;20059;-66
2022/03/25 09:51:38;;;;;;;36.03;21.02;;;;;;;;;;5053889;28;20459;-66
2022/03/25 09:54:06;;;;;;;32.38;19.65;;;;;;;;;;5053984;28;20495;-66
2022/03/25 09:56:32;;;;;;;36.47;22.50;;;;;;;;;;5052577;28;20049;-66
2022/03/25 09:58:59;;;;;;;31.38;19.75;;;;;;;;;;5036251;28;20052;-66
2022/03/25 10:01:26;;;;;;;36.65;22.85;;;;;;;;;;5076698;22;20132;-66
2022/03/25 10:03:53;;;;;;;31.02;19.88;;;;;;;;;;5054033;28;20171;-66
2022/03/25 10:06:20;;;;;;;34.35;21.52;;;;;;;;;;5053782;28;20403;-65
2022/03/25 10:09:02;;;;;;;33.08;19.80;;;;;;;;;;5053883;28;20055;-66
2022/03/25 10:11:31;;;;;;;38.00;23.23;;;;;;;;;;5053425;28;20053;-65
2022/03/25 10:14:22;;;;;;;35.38;22.08;;;;;;;;;;5053656;28;20049;-66
2022/03/25 10:16:50;;;;;;;37.85;21.83;;;;;;;;;;5053868;28;20052;-66
2022/03/25 10:19:18;;;;;;;38.47;21.75;;;;;;;;;;5053647;28;20102;-66
2022/03/25 10:22:05;;;;;;;35.70;21.77;;;;;;;;;;5053074;28;20131;-66
2022/03/25 10:24:38;;;;;;;33.70;20.90;;;;;;;;;;5053607;28;20113;-66
2022/03/25 10:27:13;;;;;;;39.03;22.48;;;;;;;;;;5053356;28;20080;-67
2022/03/25 10:29:41;;;;;;;35.97;21.90;;;;;;;;;;5053345;28;20053;-67
2022/03/25 10:32:09;;;;;;;32.85;22.05;;;;;;;;;;5035497;28;20049;-66
2022/03/25 10:34:39;;;;;;;35.50;21.08;;;;;;;;;;5053138;28;20060;-66
2022/03/25 10:37:09;;;;;;;32.08;21.40;;;;;;;;;;5053243;28;20044;-66
2022/03/25 10:39:36;;;;;;;34.90;22.23;;;;;;;;;;5053371;28;20083;-66
2022/03/25 10:42:04;;;;;;;34.38;20.38;;;;;;;;;;5052974;28;20049;-67
2022/03/25 10:44:38;;;;;;;37.35;23.15;;;;;;;;;;5051862;28;20496;-67
2022/03/25 10:47:26;;;;;;;33.33;21.33;;;;;;;;;;5052848;28;20131;-66
2022/03/25 10:49:53;;;;;;;31.95;22.10;;;;;;;;;;5053006;28;20132;-67
2022/03/25 10:52:25;;;;;;;36.97;21.48;;;;;;;;;;5052610;28;20099;-66
2022/03/25 10:55:20;;;;;;;33.70;20.70;;;;;;;;;;5053168;28;20095;-66
2022/03/25 10:57:56;;;;;;;38.25;22.15;;;;;;;;;;5053037;28;20056;-66
2022/03/25 11:00:24;;;;;;;38.20;22.30;;;;;;;;;;5052670;28;20098;-66
2022/03/25 11:02:54;;;;;;;32.58;21.33;;;;;;;;;;5052872;28;20460;-66
2022/03/25 11:05:21;;;;;;;33.50;20.65;;;;;;;;;;5052582;28;20050;-66
2022/03/25 11:07:48;;;;;;;33.85;22.08;;;;;;;;;;5052449;28;20052;-66
2022/03/25 11:10:19;;;;;;;31.75;21.63;;;;;;;;;;5052483;28;20055;-66
2022/03/25 11:12:51;;;;;;;30.63;19.45;;;;;;;;;;5052399;28;20053;-66
2022/03/25 11:15:18;;;;;;;31.83;21.00;;;;;;;;;;5052844;28;20053;-66
2022/03/25 11:17:46;;;;;;;28.52;19.55;;;;;;;;;;5052413;28;20148;-66
2022/03/25 11:20:16;;;;;;;32.00;20.52;;;;;;;;;;5052243;28;20056;-67
2022/03/25 11:22:50;;;;;;;30.58;19.95;;;;;;;;;;5052082;28;20053;-66
2022/03/25 11:25:21;;;;;;;29.83;20.45;;;;;;;;;;5051381;28;20148;-66
2022/03/25 11:27:54;;;;;;;29.65;20.65;;;;;;;;;;5051046;28;20091;-66
2022/03/25 11:30:21;;;;;;;28.52;20.27;;;;;;;;;;5051249;28;20057;-66
2022/03/25 11:32:48;;;;;;;32.28;21.67;;;;;;;;;;5050589;28;20067;-66
2022/03/25 11:35:17;;;;;;;28.33;19.83;;;;;;;;;;5052406;28;20057;-67
2022/03/25 11:37:43;;;;;;;27.20;20.58;;;;;;;;;;5052236;28;20045;-68
2022/03/25 11:40:13;;;;;;;27.83;20.52;;;;;;;;;;5052457;28;20045;-68
2022/03/25 11:42:43;;;;;;;29.17;19.38;;;;;;;;;;5051985;28;20052;-68
2022/03/25 11:45:24;;;;;;;31.92;21.38;;;;;;;;;;5052085;28;20087;-67
2022/03/25 11:48:00;;;;;;;30.98;21.08;;;;;;;;;;5052169;28;20095;-67
2022/03/25 11:50:30;;;;;;;32.47;22.02;;;;;;;;;;5052056;28;20048;-67
2022/03/25 11:52:57;;;;;;;27.25;19.73;;;;;;;;;;5052257;28;20060;-67
2022/03/25 11:55:24;;;;;;;29.65;19.33;;;;;;;;;;5052065;28;20565;-67
2022/03/25 11:57:50;;;;;;;32.03;22.60;;;;;;;;;;5050769;28;20049;-67
2022/03/25 12:00:24;;;;;;;41.28;21.15;;;;;;;;;;5051917;28;20499;-68
2022/03/25 12:03:03;;;;;;;28.67;20.50;;;;;;;;;;5051865;28;20044;-67
2022/03/25 12:05:36;;;;;;;27.83;19.88;;;;;;;;;;5051796;28;20423;-68
2022/03/25 12:08:20;;;;;;;28.30;20.60;;;;;;;;;;5052180;28;20103;-68
2022/03/25 12:10:49;;;;;;;25.48;18.95;;;;;;;;;;5051681;28;20056;-68
2022/03/25 12:13:16;;;;;;;27.08;19.75;;;;;;;;;;5051660;28;20083;-68
2022/03/25 12:15:48;;;;;;;29.27;21.17;;;;;;;;;;5051715;28;20103;-68
2022/03/25 12:18:46;;;;;;;28.40;21.58;;;;;;;;;;5051544;28;20067;-67
2022/03/25 12:21:24;;;;;;;32.13;21.17;;;;;;;;;;5053244;28;20053;-68
2022/03/25 12:24:01;;;;;;;30.00;20.30;;;;;;;;;;5055614;28;20067;-68
2022/03/25 12:26:30;;;;;;;30.77;22.33;;;;;;;;;;5055814;28;20554;-68
2022/03/25 12:28:57;;;;;;;30.40;22.25;;;;;;;;;;5055543;28;20123;-68
2022/03/25 12:31:25;;;;;;;33.60;24.25;;;;;;;;;;5055498;28;20045;-68
2022/03/25 12:33:55;;;;;;;31.95;22.48;;;;;;;;;;5055316;28;20537;-68
2022/03/25 12:36:23;;;;;;;33.47;22.67;;;;;;;;;;5055810;28;20045;-68
2022/03/25 12:38:53;;;;;;;35.35;22.10;;;;;;;;;;5054437;28;20045;-68
2022/03/25 12:41:27;;;;;;;30.67;23.00;;;;;;;;;;5053864;28;20102;-68
2022/03/25 12:44:13;;;;;;;32.25;24.13;;;;;;;;;;5055585;28;20144;-68
2022/03/25 12:46:40;;;;;;;34.75;23.42;;;;;;;;;;5055402;28;20045;-67
2022/03/25 12:49:07;;;;;;;31.30;24.67;;;;;;;;;;5055409;28;20499;-68
2022/03/25 12:51:34;;;;;;;55.55;37.72;;;;;;;;;;5055150;28;20057;-67
2022/03/25 12:54:02;;;;;;;36.00;26.20;;;;;;;;;;5055075;28;20075;-65
2022/03/25 12:56:30;;;;;;;36.05;24.85;;;;;;;;;;5055368;28;20450;-65
2022/03/25 12:58:58;;;;;;;29.15;21.90;;;;;;;;;;5053923;28;20053;-66
2022/03/25 13:01:24;;;;;;;29.90;24.02;;;;;;;;;;5054731;28;20049;-66
2022/03/25 13:03:53;;;;;;;30.90;23.42;;;;;;;;;;5054980;28;20049;-66
2022/03/25 13:06:20;;;;;;;29.80;20.55;;;;;;;;;;5055213;28;20057;-66
2022/03/25 13:08:58;;;;;;;25.98;21.10;;;;;;;;;;5055088;28;20049;-66
2022/03/25 13:11:25;;;;;;;26.23;20.20;;;;;;;;;;5053787;28;20096;-66
2022/03/25 13:13:51;;;;;;;25.10;19.65;;;;;;;;;;5055158;28;20049;-66
2022/03/25 13:16:18;;;;;;;23.48;19.20;;;;;;;;;;5054973;28;20041;-66
2022/03/25 13:18:45;;;;;;;23.15;19.25;;;;;;;;;;5054541;28;20049;-66
2022/03/25 13:21:14;;;;;;;25.52;20.50;;;;;;;;;;5054399;28;20080;-66
2022/03/25 13:23:41;;;;;;;26.20;20.25;;;;;;;;;;5053420;28;20048;-66
2022/03/25 13:26:09;;;;;;;26.33;20.45;;;;;;;;;;5054367;28;20492;-66
2022/03/25 13:28:38;;;;;;;26.90;21.10;;;;;;;;;;5054573;28;20107;-67
2022/03/25 13:31:06;;;;;;;28.30;22.10;;;;;;;;;;5053047;28;20048;-66
2022/03/25 13:33:52;;;;;;;27.83;22.88;;;;;;;;;;5054302;28;20057;-66
2022/03/25 13:36:30;;;;;;;30.50;24.33;;;;;;;;;;5054501;28;20067;-66
2022/03/25 13:39:17;;;;;;;26.20;21.27;;;;;;;;;;5054401;28;20466;-67
2022/03/25 13:41:45;;;;;;;27.92;20.13;;;;;;;;;;5053719;28;20049;-67
2022/03/25 13:44:15;;;;;;;24.55;20.05;;;;;;;;;;5054226;28;20099;-67
2022/03/25 13:46:42;;;;;;;35.63;27.23;;;;;;;;;;5054346;28;20503;-67
2022/03/25 13:49:12;;;;;;;48.45;36.20;;;;;;;;;;5052854;28;20056;-67
2022/03/25 13:51:40;;;;;;;30.35;24.13;;;;;;;;;;5053982;28;20049;-67
2022/03/25 13:54:14;;;;;;;31.02;24.17;;;;;;;;;;5054018;28;20058;-67
2022/03/25 13:56:46;;;;;;;32.55;23.90;;;;;;;;;;5054501;28;20484;-67
2022/03/25 13:59:36;;;;;;;25.77;20.95;;;;;;;;;;5054186;28;20053;-68
2022/03/25 14:02:04;;;;;;;27.75;21.25;;;;;;;;;;5053629;28;20345;-67
2022/03/25 14:04:31;;;;;;;25.30;18.42;;;;;;;;;;5053684;28;20473;-67
2022/03/25 14:07:00;;;;;;;23.52;18.23;;;;;;;;;;5053579;28;20076;-68
2022/03/25 14:09:39;;;;;;;23.65;18.35;;;;;;;;;;5053688;28;20099;-67
2022/03/25 14:12:16;;;;;;;21.90;17.95;;;;;;;;;;5053505;28;20051;-67
2022/03/25 14:14:54;;;;;;;24.55;19.80;;;;;;;;;;5053569;28;20135;-67
2022/03/25 14:17:30;;;;;;;26.10;20.17;;;;;;;;;;5053544;28;20049;-67
2022/03/25 14:19:58;;;;;;;23.45;18.92;;;;;;;;;;5052363;28;20499;-67
2022/03/25 14:22:25;;;;;;;23.23;19.00;;;;;;;;;;5053217;28;20049;-67
2022/03/25 14:24:51;;;;;;;24.10;18.65;;;;;;;;;;5053544;28;20098;-67
2022/03/25 14:27:18;;;;;;;24.50;18.55;;;;;;;;;;5053303;28;20389;-67
2022/03/25 14:29:45;;;;;;;23.50;18.90;;;;;;;;;;5053163;28;20420;-67
2022/03/25 14:32:11;;;;;;;23.42;20.13;;;;;;;;;;5053568;28;20056;-67
2022/03/25 14:34:41;;;;;;;22.08;18.67;;;;;;;;;;5053499;28;20099;-67
2022/03/25 14:37:09;;;;;;;23.08;19.48;;;;;;;;;;5053275;28;20079;-67